createdAt,value
2018-01-31T01:52:39.726Z,7.84
2018-01-31T01:53:39.540Z,7.85
2018-01-31T01:54:40.391Z,7.84
2018-01-31T01:55:39.221Z,7.85
2018-01-31T01:56:40.624Z,7.82
2018-01-31T01:57:39.768Z,7.84
2018-01-31T01:58:39.823Z,7.84
2018-01-31T01:59:40.032Z,7.84
2018-01-31T02:00:40.208Z,7.81
2018-01-31T02:01:39.441Z,7.81
2018-01-31T02:02:39.908Z,7.81
2018-01-31T02:03:40.325Z,7.8
2018-01-31T02:04:39.305Z,7.78
2018-01-31T02:05:39.374Z,7.77
2018-01-31T02:06:39.833Z,7.77
2018-01-31T02:07:40.025Z,7.75
2018-01-31T02:08:41.117Z,7.77
2018-01-31T02:09:42.249Z,7.78
2018-01-31T02:10:39.633Z,7.78
2018-01-31T02:11:39.343Z,7.78
2018-01-31T02:12:39.585Z,7.77
2018-01-31T02:13:39.413Z,7.77
2018-01-31T02:14:40.469Z,7.78
2018-01-31T02:15:39.306Z,7.75
2018-01-31T02:16:39.225Z,7.77
2018-01-31T02:17:40.207Z,7.75
2018-01-31T02:18:41.392Z,7.78
2018-01-31T02:19:40.092Z,7.75
2018-01-31T02:20:39.322Z,7.74
2018-01-31T02:21:40.144Z,7.77
2018-01-31T02:22:40.103Z,7.77
2018-01-31T02:23:40.704Z,7.77
2018-01-31T02:24:39.045Z,7.75
2018-01-31T02:25:40.007Z,7.77
2018-01-31T02:26:40.653Z,7.75
2018-01-31T02:27:40.588Z,7.77
2018-01-31T02:28:39.889Z,7.78
2018-01-31T02:29:40.218Z,7.75
2018-01-31T02:30:39.758Z,7.78
2018-01-31T02:31:40.059Z,7.78
2018-01-31T02:32:39.311Z,7.77
2018-01-31T02:33:39.571Z,7.8
2018-01-31T02:34:39.824Z,7.75
2018-01-31T02:35:39.509Z,7.78
2018-01-31T02:36:39.972Z,7.78
2018-01-31T02:37:39.600Z,7.82
2018-01-31T02:38:39.290Z,7.82
2018-01-31T02:39:39.946Z,7.8
2018-01-31T02:40:39.485Z,7.8
2018-01-31T02:41:40.915Z,7.8
2018-01-31T02:42:39.887Z,7.81
2018-01-31T02:43:39.482Z,7.8
2018-01-31T02:44:39.478Z,7.81
2018-01-31T02:45:40.093Z,7.8
2018-01-31T02:46:39.505Z,7.77
2018-01-31T02:47:39.290Z,7.77
2018-01-31T02:48:39.250Z,7.75
2018-01-31T02:49:39.403Z,7.77
2018-01-31T02:50:39.136Z,7.78
2018-01-31T02:51:39.141Z,7.77
2018-01-31T02:52:39.579Z,7.78
2018-01-31T02:53:41.569Z,7.78
2018-01-31T02:54:40.754Z,7.78
2018-01-31T02:55:39.203Z,7.77
2018-01-31T02:56:39.457Z,7.78
2018-01-31T02:57:39.562Z,7.77
2018-01-31T02:58:39.260Z,7.75
2018-01-31T02:59:40.504Z,7.75
2018-01-31T03:00:39.907Z,7.75
2018-01-31T03:01:40.055Z,7.78
2018-01-31T03:02:39.583Z,7.72
2018-01-31T03:03:42.230Z,7.77
2018-01-31T03:04:40.315Z,7.75
2018-01-31T03:05:40.018Z,7.75
2018-01-31T03:06:39.668Z,7.74
2018-01-31T03:07:40.659Z,7.75
2018-01-31T03:08:39.431Z,7.72
2018-01-31T03:09:39.504Z,7.72
2018-01-31T03:10:40.787Z,7.75
2018-01-31T03:11:39.398Z,7.72
2018-01-31T03:12:40.245Z,7.74
2018-01-31T03:13:40.780Z,7.74
2018-01-31T03:14:40.727Z,7.74
2018-01-31T03:15:40.733Z,7.72
2018-01-31T03:16:41.143Z,7.71
2018-01-31T03:17:39.515Z,7.69
2018-01-31T03:18:39.495Z,7.74
2018-01-31T03:19:40.617Z,7.74
2018-01-31T03:20:39.455Z,7.74
2018-01-31T03:21:39.319Z,7.72
2018-01-31T03:22:39.895Z,7.72
2018-01-31T03:23:40.004Z,7.74
2018-01-31T03:24:40.391Z,7.72
2018-01-31T03:25:39.629Z,7.71
2018-01-31T03:26:39.944Z,7.71
2018-01-31T03:27:39.609Z,7.71
2018-01-31T03:28:39.560Z,7.72
2018-01-31T03:29:39.452Z,7.74
2018-01-31T03:30:39.596Z,7.71
2018-01-31T03:31:43.052Z,7.72
2018-01-31T03:32:39.953Z,7.75
2018-01-31T03:33:39.343Z,7.75
2018-01-31T03:34:40.114Z,7.75
2018-01-31T03:35:40.018Z,7.74
2018-01-31T03:36:41.283Z,7.74
2018-01-31T03:37:40.030Z,7.75
2018-01-31T03:38:45.134Z,7.72
2018-01-31T03:39:39.317Z,7.74
2018-01-31T03:40:39.556Z,7.74
2018-01-31T03:41:39.824Z,7.75
2018-01-31T03:42:39.498Z,7.74
2018-01-31T03:43:39.465Z,7.77
2018-01-31T03:44:39.395Z,7.74
2018-01-31T03:45:40.257Z,7.75
2018-01-31T03:46:40.412Z,7.74
2018-01-31T03:47:39.726Z,7.74
2018-01-31T03:48:39.625Z,7.75
2018-01-31T03:49:39.273Z,7.72
2018-01-31T03:50:39.188Z,7.72
2018-01-31T03:51:39.556Z,7.74
2018-01-31T03:52:39.668Z,7.74
2018-01-31T03:53:39.522Z,7.74
2018-01-31T03:54:39.902Z,7.74
2018-01-31T03:55:39.531Z,7.75
2018-01-31T03:56:39.689Z,7.74
2018-01-31T03:57:40.411Z,7.75
2018-01-31T03:58:39.595Z,7.72
2018-01-31T03:59:39.094Z,7.74
2018-01-31T04:00:39.510Z,7.72
2018-01-31T04:01:39.836Z,7.75
2018-01-31T04:02:40.048Z,7.74
2018-01-31T04:03:41.671Z,7.75
2018-01-31T04:04:40.084Z,7.72
2018-01-31T04:05:40.909Z,7.77
2018-01-31T04:06:39.676Z,7.74
2018-01-31T04:07:39.464Z,7.72
2018-01-31T04:08:40.870Z,7.74
2018-01-31T04:09:40.686Z,7.72
2018-01-31T04:10:40.188Z,7.71
2018-01-31T04:11:40.107Z,7.74
2018-01-31T04:12:39.903Z,7.72
2018-01-31T04:13:40.729Z,7.72
2018-01-31T04:14:39.530Z,7.72
2018-01-31T04:15:39.226Z,7.74
2018-01-31T04:16:39.324Z,7.74
2018-01-31T04:17:40.320Z,7.72
2018-01-31T04:18:39.803Z,7.75
2018-01-31T04:19:39.311Z,7.74
2018-01-31T04:20:39.636Z,7.75
2018-01-31T04:21:39.276Z,7.75
2018-01-31T04:22:40.180Z,7.71
2018-01-31T04:23:39.867Z,7.74
2018-01-31T04:24:39.401Z,7.74
2018-01-31T04:25:40.831Z,7.74
2018-01-31T04:26:40.278Z,7.74
2018-01-31T04:27:39.578Z,7.74
2018-01-31T04:28:39.710Z,7.74
2018-01-31T04:29:40.104Z,7.72
2018-01-31T04:30:40.818Z,7.74
2018-01-31T04:31:39.904Z,7.74
2018-01-31T04:32:41.368Z,7.72
2018-01-31T04:33:39.370Z,7.74
2018-01-31T04:34:40.082Z,7.75
2018-01-31T04:35:39.239Z,7.74
2018-01-31T04:36:40.372Z,7.74
2018-01-31T04:37:39.764Z,7.75
2018-01-31T04:38:39.568Z,7.75
2018-01-31T04:39:39.207Z,7.72
2018-01-31T04:40:39.555Z,7.75
2018-01-31T04:41:39.263Z,7.72
2018-01-31T04:42:39.566Z,7.74
2018-01-31T04:43:40.315Z,7.75
2018-01-31T04:44:40.826Z,7.72
2018-01-31T04:45:40.824Z,7.74
2018-01-31T04:46:39.473Z,7.74
2018-01-31T04:47:40.897Z,7.75
2018-01-31T04:48:39.519Z,7.78
2018-01-31T04:49:39.526Z,7.77
2018-01-31T04:50:39.454Z,7.77
2018-01-31T04:51:39.154Z,7.81
2018-01-31T04:52:39.207Z,7.81
2018-01-31T04:53:39.112Z,7.8
2018-01-31T04:54:39.273Z,7.81
2018-01-31T04:55:39.297Z,7.8
2018-01-31T04:56:39.406Z,7.81
2018-01-31T04:57:39.350Z,7.85
2018-01-31T04:58:39.229Z,7.84
2018-01-31T04:59:39.339Z,7.84
2018-01-31T05:00:39.292Z,7.85
2018-01-31T05:01:39.390Z,7.86
2018-01-31T05:02:39.427Z,7.86
2018-01-31T05:03:39.229Z,7.89
2018-01-31T05:04:39.314Z,7.91
2018-01-31T05:05:39.413Z,7.88
2018-01-31T05:06:39.383Z,7.88
2018-01-31T05:07:39.244Z,7.91
2018-01-31T05:08:39.253Z,7.95
2018-01-31T05:09:39.407Z,7.93
2018-01-31T05:10:39.439Z,7.92
2018-01-31T05:11:39.181Z,7.93
2018-01-31T05:12:39.298Z,7.96
2018-01-31T05:13:39.287Z,7.98
2018-01-31T05:14:39.248Z,7.98
2018-01-31T05:15:39.376Z,7.98
2018-01-31T05:16:39.216Z,7.99
2018-01-31T05:17:39.460Z,7.98
2018-01-31T05:18:39.416Z,7.98
2018-01-31T05:19:39.416Z,7.98
2018-01-31T05:20:39.693Z,7.96
2018-01-31T05:21:39.297Z,7.98
2018-01-31T05:22:39.293Z,7.96
2018-01-31T05:23:39.962Z,7.99
2018-01-31T05:24:39.428Z,7.99
2018-01-31T05:25:39.331Z,8.01
2018-01-31T05:26:39.156Z,7.99
2018-01-31T05:27:39.312Z,8.02
2018-01-31T05:28:39.433Z,8.03
2018-01-31T05:29:39.429Z,8.02
2018-01-31T05:30:39.345Z,8.02
2018-01-31T05:31:39.380Z,8.01
2018-01-31T05:32:39.383Z,8.03
2018-01-31T05:33:39.480Z,8.05
2018-01-31T05:34:39.288Z,8.03
2018-01-31T05:35:39.440Z,8.05
2018-01-31T05:36:39.410Z,8.01
2018-01-31T05:37:39.477Z,8.01
2018-01-31T05:38:39.438Z,8.01
2018-01-31T05:39:39.511Z,8.03
2018-01-31T05:40:39.342Z,8.03
2018-01-31T05:41:39.382Z,8.03
2018-01-31T05:42:39.231Z,8.01
2018-01-31T05:43:39.504Z,8.02
2018-01-31T05:44:39.441Z,8.03
2018-01-31T05:45:39.373Z,8.03
2018-01-31T05:46:39.355Z,8.03
2018-01-31T05:47:39.227Z,8.02
2018-01-31T05:48:39.413Z,8.05
2018-01-31T05:49:39.222Z,8.03
2018-01-31T05:50:39.512Z,8.02
2018-01-31T05:51:39.246Z,8.03
2018-01-31T05:52:39.323Z,8.06
2018-01-31T05:53:39.426Z,8.05
2018-01-31T05:54:39.478Z,8.05
2018-01-31T05:55:39.408Z,8.02
2018-01-31T05:56:39.390Z,8.06
2018-01-31T05:57:39.283Z,8.05
2018-01-31T05:58:39.296Z,8.03
2018-01-31T05:59:39.504Z,8.06
2018-01-31T06:00:39.463Z,8.05
2018-01-31T06:01:39.447Z,8.05
2018-01-31T06:02:39.538Z,8.06
2018-01-31T06:03:39.378Z,8.06
2018-01-31T06:04:39.490Z,8.06
2018-01-31T06:05:39.419Z,8.05
2018-01-31T06:06:39.469Z,8.05
2018-01-31T06:07:39.478Z,8.06
2018-01-31T06:08:39.305Z,8.06
2018-01-31T06:09:39.604Z,8.06
2018-01-31T06:10:39.434Z,8.06
2018-01-31T06:11:39.483Z,8.05
2018-01-31T06:12:39.435Z,8.03
2018-01-31T06:13:39.497Z,8.08
2018-01-31T06:14:39.467Z,8.1
2018-01-31T06:15:39.373Z,8.08
2018-01-31T06:16:39.470Z,8.09
2018-01-31T06:17:39.501Z,8.09
2018-01-31T06:18:39.534Z,8.09
2018-01-31T06:19:39.297Z,8.1
2018-01-31T06:20:39.600Z,8.09
2018-01-31T06:21:39.441Z,8.08
2018-01-31T06:22:39.286Z,8.12
2018-01-31T06:23:39.374Z,8.1
2018-01-31T06:24:39.472Z,8.1
2018-01-31T06:25:39.522Z,8.09
2018-01-31T06:26:39.449Z,8.12
2018-01-31T06:27:39.333Z,8.1
2018-01-31T06:28:39.377Z,8.1
2018-01-31T06:29:39.554Z,8.08
2018-01-31T06:30:39.427Z,8.09
2018-01-31T06:31:39.314Z,8.12
2018-01-31T06:32:39.297Z,8.12
2018-01-31T06:33:39.406Z,8.13
2018-01-31T06:34:39.549Z,8.12
2018-01-31T06:35:39.468Z,8.1
2018-01-31T06:36:39.416Z,8.12
2018-01-31T06:37:39.477Z,8.12
2018-01-31T06:38:39.466Z,8.13
2018-01-31T06:39:39.622Z,8.12
2018-01-31T06:40:39.527Z,8.12
2018-01-31T06:41:40.105Z,8.13
2018-01-31T06:42:39.489Z,8.13
2018-01-31T06:43:39.499Z,8.12
2018-01-31T06:44:39.818Z,8.12
2018-01-31T06:45:39.578Z,8.12
2018-01-31T06:46:39.609Z,8.14
2018-01-31T06:47:39.427Z,8.13
2018-01-31T06:48:39.431Z,8.14
2018-01-31T06:49:39.581Z,8.1
2018-01-31T06:50:39.413Z,8.13
2018-01-31T06:51:39.429Z,8.14
2018-01-31T06:52:39.513Z,8.14
2018-01-31T06:53:39.369Z,8.17
2018-01-31T06:54:39.607Z,8.13
2018-01-31T06:55:39.425Z,8.17
2018-01-31T06:56:39.586Z,8.16
2018-01-31T06:57:39.336Z,8.16
2018-01-31T06:58:39.443Z,8.13
2018-01-31T06:59:39.601Z,8.17
2018-01-31T07:00:39.483Z,8.16
2018-01-31T07:01:39.395Z,8.19
2018-01-31T07:02:39.613Z,8.16
2018-01-31T07:03:39.425Z,8.17
2018-01-31T07:04:39.334Z,8.2
2018-01-31T07:05:39.764Z,8.17
2018-01-31T07:06:39.647Z,8.2
2018-01-31T07:07:40.233Z,8.23
2018-01-31T07:08:40.086Z,8.2
2018-01-31T07:09:40.092Z,8.21
2018-01-31T07:10:39.484Z,8.24
2018-01-31T07:11:39.476Z,8.26
2018-01-31T07:12:39.524Z,8.27
2018-01-31T07:13:39.829Z,8.3
2018-01-31T07:14:39.715Z,8.31
2018-01-31T07:15:39.573Z,8.33
2018-01-31T07:16:39.622Z,8.34
2018-01-31T07:17:39.608Z,8.36
2018-01-31T07:18:39.615Z,8.36
2018-01-31T07:19:39.741Z,8.34
2018-01-31T07:20:39.454Z,8.34
2018-01-31T07:21:39.574Z,8.38
2018-01-31T07:22:39.542Z,8.33
2018-01-31T07:23:39.411Z,8.34
2018-01-31T07:24:39.900Z,8.33
2018-01-31T07:25:39.438Z,8.37
2018-01-31T07:26:39.545Z,8.37
2018-01-31T07:27:40.086Z,8.36
2018-01-31T07:28:39.707Z,8.38
2018-01-31T07:29:40.191Z,8.38
2018-01-31T07:30:40.239Z,8.38
2018-01-31T07:31:39.366Z,8.41
2018-01-31T07:32:39.605Z,8.38
2018-01-31T07:33:39.540Z,8.41
2018-01-31T07:34:39.626Z,8.41
2018-01-31T07:35:39.631Z,8.41
2018-01-31T07:36:39.571Z,8.41
2018-01-31T07:37:39.516Z,8.41
2018-01-31T07:38:40.332Z,8.41
2018-01-31T07:39:39.465Z,8.41
2018-01-31T07:40:39.536Z,8.43
2018-01-31T07:41:39.581Z,8.43
2018-01-31T07:42:39.553Z,8.43
2018-01-31T07:43:39.754Z,8.44
2018-01-31T07:44:39.709Z,8.44
2018-01-31T07:45:39.553Z,8.45
2018-01-31T07:46:39.598Z,8.45
2018-01-31T07:47:39.704Z,8.47
2018-01-31T07:48:40.336Z,8.48
2018-01-31T07:49:39.627Z,8.48
2018-01-31T07:50:39.583Z,8.48
2018-01-31T07:51:39.571Z,8.48
2018-01-31T07:52:39.569Z,8.49
2018-01-31T07:53:39.566Z,8.49
2018-01-31T07:54:39.593Z,8.52
2018-01-31T07:55:39.590Z,8.49
2018-01-31T07:56:39.693Z,8.54
2018-01-31T07:57:39.524Z,8.54
2018-01-31T07:58:39.716Z,8.51
2018-01-31T07:59:39.723Z,8.57
2018-01-31T08:00:39.708Z,8.57
2018-01-31T08:01:40.620Z,8.54
2018-01-31T08:02:39.818Z,8.54
2018-01-31T08:03:39.715Z,8.55
2018-01-31T08:04:39.660Z,8.55
2018-01-31T08:05:39.669Z,8.54
2018-01-31T08:06:39.631Z,8.55
2018-01-31T08:07:39.491Z,8.55
2018-01-31T08:08:39.659Z,8.54
2018-01-31T08:09:39.478Z,8.58
2018-01-31T08:10:39.639Z,8.59
2018-01-31T08:11:39.675Z,8.61
2018-01-31T08:12:39.539Z,8.64
2018-01-31T08:13:39.825Z,8.64
2018-01-31T08:14:39.578Z,8.62
2018-01-31T08:15:38.636Z,8.64
2018-01-31T08:16:38.686Z,8.61
2018-01-31T08:17:38.768Z,8.62
2018-01-31T08:18:38.738Z,8.64
2018-01-31T08:19:38.857Z,8.62
2018-01-31T08:20:38.723Z,8.65
2018-01-31T08:21:38.602Z,8.65
2018-01-31T08:22:38.753Z,8.65
2018-01-31T08:23:38.733Z,8.68
2018-01-31T08:24:38.832Z,8.65
2018-01-31T08:25:38.641Z,8.69
2018-01-31T08:26:38.656Z,8.68
2018-01-31T08:27:39.440Z,8.69
2018-01-31T08:28:38.652Z,8.72
2018-01-31T08:29:38.735Z,8.74
2018-01-31T08:30:38.609Z,8.75
2018-01-31T08:31:38.761Z,8.75
2018-01-31T08:32:38.576Z,8.76
2018-01-31T08:33:38.763Z,8.76
2018-01-31T08:34:39.029Z,8.79
2018-01-31T08:35:38.694Z,8.78
2018-01-31T08:36:38.746Z,8.78
2018-01-31T08:37:38.649Z,8.8
2018-01-31T08:38:38.542Z,8.79
2018-01-31T08:39:39.008Z,8.8
2018-01-31T08:40:38.852Z,8.82
2018-01-31T08:41:38.730Z,8.82
2018-01-31T08:42:38.894Z,8.85
2018-01-31T08:43:38.807Z,8.86
2018-01-31T08:44:38.780Z,8.88
2018-01-31T08:45:39.117Z,8.88
2018-01-31T08:46:38.864Z,8.86
2018-01-31T08:47:39.011Z,8.85
2018-01-31T08:48:39.011Z,8.83
2018-01-31T08:49:38.986Z,8.82
2018-01-31T08:50:38.965Z,8.88
2018-01-31T08:51:39.047Z,8.85
2018-01-31T08:52:38.993Z,8.86
2018-01-31T08:53:39.150Z,8.86
2018-01-31T08:54:39.069Z,8.88
2018-01-31T08:55:39.024Z,8.89
2018-01-31T08:56:39.007Z,8.88
2018-01-31T08:57:39.452Z,8.89
2018-01-31T08:58:38.977Z,8.89
2018-01-31T08:59:38.987Z,8.92
2018-01-31T09:00:39.061Z,8.92
2018-01-31T09:01:38.990Z,8.92
2018-01-31T09:02:39.172Z,8.93
2018-01-31T09:03:39.052Z,8.96
2018-01-31T09:04:38.881Z,9
2018-01-31T09:05:38.899Z,9.02
2018-01-31T09:06:39.026Z,9.04
2018-01-31T09:07:39.183Z,9.04
2018-01-31T09:08:39.001Z,9.06
2018-01-31T09:09:38.838Z,9.07
2018-01-31T09:10:39.084Z,9.09
2018-01-31T09:11:38.917Z,9.14
2018-01-31T09:12:39.798Z,9.17
2018-01-31T09:13:39.033Z,9.19
2018-01-31T09:14:39.050Z,9.23
2018-01-31T09:15:39.151Z,9.26
2018-01-31T09:16:39.104Z,9.29
2018-01-31T09:17:39.101Z,9.31
2018-01-31T09:18:38.985Z,9.4
2018-01-31T09:19:39.112Z,9.44
2018-01-31T09:20:38.923Z,9.47
2018-01-31T09:21:39.422Z,9.48
2018-01-31T09:22:38.945Z,9.48
2018-01-31T09:23:39.021Z,9.51
2018-01-31T09:24:39.073Z,9.51
2018-01-31T09:25:39.115Z,9.51
2018-01-31T09:26:39.059Z,9.54
2018-01-31T09:27:39.190Z,9.57
2018-01-31T09:28:39.035Z,9.58
2018-01-31T09:29:39.038Z,9.61
2018-01-31T09:30:39.070Z,9.62
2018-01-31T09:31:39.103Z,9.65
2018-01-31T09:32:39.049Z,9.66
2018-01-31T09:33:38.973Z,9.65
2018-01-31T09:34:39.141Z,9.68
2018-01-31T09:35:39.085Z,9.66
2018-01-31T09:36:38.954Z,9.69
2018-01-31T09:37:39.195Z,9.66
2018-01-31T09:38:39.191Z,9.69
2018-01-31T09:39:38.984Z,9.66
2018-01-31T09:40:39.064Z,9.63
2018-01-31T09:41:39.161Z,9.65
2018-01-31T09:42:38.925Z,9.63
2018-01-31T09:43:39.022Z,9.66
2018-01-31T09:44:38.981Z,9.65
2018-01-31T09:45:39.368Z,9.62
2018-01-31T09:46:39.210Z,9.66
2018-01-31T09:47:39.075Z,9.65
2018-01-31T09:48:39.189Z,9.65
2018-01-31T09:49:39.062Z,9.66
2018-01-31T09:50:39.186Z,9.7
2018-01-31T09:51:38.924Z,9.69
2018-01-31T09:52:39.067Z,9.68
2018-01-31T09:53:38.988Z,9.66
2018-01-31T09:54:38.947Z,9.68
2018-01-31T09:55:39.395Z,9.68
2018-01-31T09:56:39.443Z,9.7
2018-01-31T09:57:39.188Z,9.69
2018-01-31T09:58:39.059Z,9.69
2018-01-31T09:59:39.932Z,9.69
2018-01-31T10:00:39.022Z,9.69
2018-01-31T10:01:39.451Z,9.7
2018-01-31T10:02:39.087Z,9.66
2018-01-31T10:03:39.056Z,9.66
2018-01-31T10:04:39.068Z,9.63
2018-01-31T10:05:38.989Z,9.63
2018-01-31T10:06:40.486Z,9.62
2018-01-31T10:07:38.953Z,9.63
2018-01-31T10:08:39.029Z,9.62
2018-01-31T10:09:39.083Z,9.62
2018-01-31T10:10:38.976Z,9.61
2018-01-31T10:11:39.124Z,9.58
2018-01-31T10:12:39.172Z,9.59
2018-01-31T10:13:39.149Z,9.58
2018-01-31T10:14:39.234Z,9.57
2018-01-31T10:15:39.195Z,9.57
2018-01-31T10:16:39.055Z,9.55
2018-01-31T10:17:38.980Z,9.55
2018-01-31T10:18:38.987Z,9.58
2018-01-31T10:19:39.408Z,9.58
2018-01-31T10:20:39.044Z,9.57
2018-01-31T10:21:39.133Z,9.57
2018-01-31T10:22:39.288Z,9.58
2018-01-31T10:23:39.294Z,9.58
2018-01-31T10:24:39.830Z,9.55
2018-01-31T10:25:39.071Z,9.58
2018-01-31T10:26:39.204Z,9.58
2018-01-31T10:27:39.299Z,9.61
2018-01-31T10:28:39.217Z,9.61
2018-01-31T10:29:39.552Z,9.61
2018-01-31T10:30:39.167Z,9.61
2018-01-31T10:31:39.193Z,9.61
2018-01-31T10:32:39.026Z,9.61
2018-01-31T10:33:39.115Z,9.59
2018-01-31T10:34:39.018Z,9.61
2018-01-31T10:35:39.089Z,9.59
2018-01-31T10:36:39.093Z,9.58
2018-01-31T10:37:39.346Z,9.59
2018-01-31T10:38:39.061Z,9.61
2018-01-31T10:39:39.302Z,9.59
2018-01-31T10:40:39.161Z,9.59
2018-01-31T10:41:39.225Z,9.59
2018-01-31T10:42:39.469Z,9.61
2018-01-31T10:43:39.468Z,9.58
2018-01-31T10:44:39.216Z,9.59
2018-01-31T10:45:39.289Z,9.58
2018-01-31T10:46:39.158Z,9.57
2018-01-31T10:47:39.189Z,9.57
2018-01-31T10:48:39.242Z,9.57
2018-01-31T10:49:39.302Z,9.54
2018-01-31T10:50:39.275Z,9.57
2018-01-31T10:51:39.137Z,9.52
2018-01-31T10:52:39.147Z,9.52
2018-01-31T10:57:39.291Z,9.4
2018-01-31T10:58:39.352Z,9.34
2018-01-31T10:59:39.501Z,9.34
2018-01-31T11:00:39.218Z,9.34
2018-01-31T11:01:39.205Z,9.33
2018-01-31T11:02:39.339Z,9.27
2018-01-31T11:03:39.361Z,9.29
2018-01-31T11:04:39.302Z,9.29
2018-01-31T11:05:39.308Z,9.29
2018-01-31T11:06:39.355Z,9.27
2018-01-31T11:07:39.374Z,9.27
2018-01-31T11:08:40.127Z,9.29
2018-01-31T11:09:39.372Z,9.27
2018-01-31T11:10:39.219Z,9.27
2018-01-31T11:11:39.445Z,9.27
2018-01-31T11:12:39.271Z,9.24
2018-01-31T11:13:39.356Z,9.27
2018-01-31T11:14:39.317Z,9.29
2018-01-31T11:15:39.659Z,9.26
2018-01-31T11:16:39.464Z,9.29
2018-01-31T11:17:39.706Z,9.27
2018-01-31T11:18:39.614Z,9.29
2018-01-31T11:19:39.545Z,9.29
2018-01-31T11:20:39.485Z,9.29
2018-01-31T11:21:39.444Z,9.27
2018-01-31T11:22:39.761Z,9.27
2018-01-31T11:23:39.472Z,9.27
2018-01-31T11:24:39.446Z,9.29
2018-01-31T11:25:39.440Z,9.3
2018-01-31T11:26:39.604Z,9.27
2018-01-31T11:27:39.715Z,9.3
2018-01-31T11:28:39.495Z,9.29
2018-01-31T11:29:39.834Z,9.31
2018-01-31T11:30:39.714Z,9.31
2018-01-31T11:31:39.567Z,9.35
2018-01-31T11:32:39.597Z,9.34
2018-01-31T11:33:39.591Z,9.38
2018-01-31T11:34:39.689Z,9.4
2018-01-31T11:35:39.556Z,9.41
2018-01-31T11:36:39.668Z,9.42
2018-01-31T11:37:39.455Z,9.44
2018-01-31T11:38:39.673Z,9.48
2018-01-31T11:39:39.546Z,9.51
2018-01-31T11:40:39.632Z,9.51
2018-01-31T11:41:39.605Z,9.54
2018-01-31T11:42:38.684Z,9.52
2018-01-31T11:43:39.648Z,9.55
2018-01-31T11:44:39.585Z,9.57
2018-01-31T11:45:39.650Z,9.59
2018-01-31T11:46:39.504Z,9.58
2018-01-31T11:47:39.710Z,9.62
2018-01-31T11:48:39.659Z,9.68
2018-01-31T11:49:39.576Z,9.69
2018-01-31T11:50:39.543Z,9.68
2018-01-31T11:51:39.632Z,9.72
2018-01-31T11:52:39.868Z,9.75
2018-01-31T11:53:39.646Z,9.76
2018-01-31T11:54:39.779Z,9.81
2018-01-31T11:55:39.615Z,9.85
2018-01-31T11:56:39.737Z,9.92
2018-01-31T11:57:39.845Z,10
2018-01-31T11:58:39.613Z,10.06
2018-01-31T11:59:41.295Z,10.1
2018-01-31T12:00:39.622Z,10.19
2018-01-31T12:01:39.451Z,10.21
2018-01-31T12:02:39.505Z,10.24
2018-01-31T12:03:39.521Z,10.28
2018-01-31T12:04:39.756Z,10.3
2018-01-31T12:05:39.492Z,10.27
2018-01-31T12:06:39.451Z,10.31
2018-01-31T12:07:39.506Z,10.34
2018-01-31T12:08:39.680Z,10.35
2018-01-31T12:09:39.646Z,10.37
2018-01-31T12:10:39.540Z,10.31
2018-01-31T12:11:39.568Z,10.32
2018-01-31T12:12:39.650Z,10.25
2018-01-31T12:13:39.623Z,10.24
2018-01-31T12:14:39.611Z,10.24
2018-01-31T12:15:39.877Z,10.24
2018-01-31T12:16:38.929Z,10.21
2018-01-31T12:17:38.819Z,10.21
2018-01-31T12:18:38.772Z,10.23
2018-01-31T12:19:38.834Z,10.23
2018-01-31T12:20:38.772Z,10.19
2018-01-31T12:21:38.708Z,10.14
2018-01-31T12:22:38.673Z,10.13
2018-01-31T12:23:38.844Z,10.14
2018-01-31T12:24:38.964Z,10.13
2018-01-31T12:25:38.827Z,10.07
2018-01-31T12:26:38.813Z,10.09
2018-01-31T12:27:38.855Z,10.07
2018-01-31T12:28:38.889Z,10.09
2018-01-31T12:29:38.769Z,10.06
2018-01-31T12:30:38.799Z,10.03
2018-01-31T12:31:38.836Z,10.04
2018-01-31T12:32:39.456Z,10.04
2018-01-31T12:33:38.665Z,10.04
2018-01-31T12:34:38.841Z,10.03
2018-01-31T12:35:38.812Z,10
2018-01-31T12:36:38.614Z,9.96
2018-01-31T12:37:38.795Z,9.94
2018-01-31T12:38:38.824Z,9.96
2018-01-31T12:39:39.037Z,9.93
2018-01-31T12:40:38.747Z,9.89
2018-01-31T12:41:38.776Z,9.88
2018-01-31T12:42:38.738Z,9.88
2018-01-31T12:43:38.818Z,9.89
2018-01-31T12:44:39.085Z,9.86
2018-01-31T12:45:38.621Z,9.89
2018-01-31T12:46:39.047Z,9.88
2018-01-31T12:47:38.957Z,9.89
2018-01-31T12:48:38.791Z,9.9
2018-01-31T12:49:38.727Z,9.93
2018-01-31T12:50:38.895Z,9.89
2018-01-31T12:51:38.871Z,9.89
2018-01-31T12:52:38.913Z,9.89
2018-01-31T12:53:39.062Z,9.9
2018-01-31T12:54:38.965Z,9.9
2018-01-31T12:55:38.869Z,9.9
2018-01-31T12:56:38.845Z,9.94
2018-01-31T12:57:38.986Z,9.92
2018-01-31T12:58:39.183Z,9.93
2018-01-31T12:59:38.925Z,9.96
2018-01-31T13:00:38.861Z,9.94
2018-01-31T13:01:38.961Z,9.94
2018-01-31T13:02:38.969Z,9.93
2018-01-31T13:03:39.045Z,9.93
2018-01-31T13:04:38.970Z,9.92
2018-01-31T13:05:39.091Z,9.9
2018-01-31T13:06:38.760Z,9.9
2018-01-31T13:07:38.749Z,9.92
2018-01-31T13:08:39.082Z,9.9
2018-01-31T13:09:38.884Z,9.93
2018-01-31T13:10:38.964Z,9.93
2018-01-31T13:11:38.832Z,9.93
2018-01-31T13:12:38.769Z,9.92
2018-01-31T13:13:38.816Z,9.92
2018-01-31T13:14:38.940Z,9.9
2018-01-31T13:15:38.797Z,9.93
2018-01-31T13:16:39.220Z,9.97
2018-01-31T13:17:39.309Z,9.97
2018-01-31T13:18:39.439Z,9.96
2018-01-31T13:19:39.662Z,9.94
2018-01-31T13:20:39.297Z,9.93
2018-01-31T13:21:39.295Z,9.92
2018-01-31T13:22:39.243Z,9.93
2018-01-31T13:23:39.211Z,9.9
2018-01-31T13:24:39.636Z,9.92
2018-01-31T13:25:40.463Z,9.89
2018-01-31T13:26:39.524Z,9.93
2018-01-31T13:27:39.387Z,9.92
2018-01-31T13:28:39.376Z,9.92
2018-01-31T13:29:39.259Z,9.9
2018-01-31T13:30:40.218Z,9.9
2018-01-31T13:31:39.331Z,9.92
2018-01-31T13:32:39.367Z,9.88
2018-01-31T13:33:39.459Z,9.92
2018-01-31T13:34:39.228Z,9.9
2018-01-31T13:35:39.281Z,9.89
2018-01-31T13:36:39.177Z,9.9
2018-01-31T13:37:39.348Z,9.88
2018-01-31T13:38:39.274Z,9.86
2018-01-31T13:39:39.130Z,9.89
2018-01-31T13:40:39.282Z,9.9
2018-01-31T13:41:39.317Z,9.92
2018-01-31T13:42:39.454Z,9.92
2018-01-31T13:43:39.488Z,9.92
2018-01-31T13:44:39.294Z,9.9
2018-01-31T13:45:39.253Z,9.89
2018-01-31T13:46:39.426Z,9.92
2018-01-31T13:47:39.448Z,9.9
2018-01-31T13:48:39.472Z,9.88
2018-01-31T13:49:39.448Z,9.89
2018-01-31T13:50:39.511Z,9.88
2018-01-31T13:51:39.391Z,9.9
2018-01-31T13:52:39.476Z,9.88
2018-01-31T13:53:39.421Z,9.88
2018-01-31T13:54:39.333Z,9.85
2018-01-31T13:55:39.664Z,9.85
2018-01-31T13:56:39.210Z,9.88
2018-01-31T13:57:39.548Z,9.86
2018-01-31T13:58:39.292Z,9.83
2018-01-31T13:59:39.431Z,9.86
2018-01-31T14:00:39.331Z,9.86
2018-01-31T14:01:39.338Z,9.9
2018-01-31T14:02:39.241Z,9.89
2018-01-31T14:03:39.405Z,9.88
2018-01-31T14:04:39.610Z,9.86
2018-01-31T14:05:39.385Z,9.85
2018-01-31T14:06:39.300Z,9.85
2018-01-31T14:07:39.338Z,9.86
2018-01-31T14:08:39.677Z,9.88
2018-01-31T14:09:39.165Z,9.88
2018-01-31T14:10:39.319Z,9.9
2018-01-31T14:11:39.408Z,9.89
2018-01-31T14:12:39.448Z,9.88
2018-01-31T14:13:39.249Z,9.9
2018-01-31T14:14:39.587Z,9.9
2018-01-31T14:15:39.493Z,9.89
2018-01-31T14:16:39.495Z,9.89
2018-01-31T14:17:39.457Z,9.88
2018-01-31T14:18:39.414Z,9.89
2018-01-31T14:19:39.537Z,9.89
2018-01-31T14:20:41.274Z,9.89
2018-01-31T14:21:40.766Z,9.88
2018-01-31T14:22:41.009Z,9.9
2018-01-31T14:23:41.461Z,9.86
2018-01-31T14:24:51.663Z,9.86
2018-01-31T14:25:42.493Z,9.88
2018-01-31T14:26:41.999Z,9.88
2018-01-31T14:27:39.335Z,9.85
2018-01-31T14:28:39.331Z,9.89
2018-01-31T14:29:39.468Z,9.88
2018-01-31T14:30:39.444Z,9.86
2018-01-31T14:31:39.601Z,9.88
2018-01-31T14:32:39.457Z,9.85
2018-01-31T14:33:39.432Z,9.88
2018-01-31T14:34:39.496Z,9.85
2018-01-31T14:35:39.533Z,9.83
2018-01-31T14:36:40.026Z,9.85
2018-01-31T14:37:42.714Z,9.85
2018-01-31T14:38:39.510Z,9.86
2018-01-31T14:39:39.552Z,9.83
2018-01-31T14:40:39.448Z,9.83
2018-01-31T14:41:39.533Z,9.86
2018-01-31T14:42:39.381Z,9.83
2018-01-31T14:43:39.315Z,9.85
2018-01-31T14:44:39.377Z,9.85
2018-01-31T14:45:39.418Z,9.85
2018-01-31T14:46:40.617Z,9.86
2018-01-31T14:47:39.940Z,9.86
2018-01-31T14:48:39.555Z,9.83
2018-01-31T14:49:40.297Z,9.86
2018-01-31T14:50:39.669Z,9.85
2018-01-31T14:51:39.740Z,9.85
2018-01-31T14:52:39.464Z,9.88
2018-01-31T14:53:39.800Z,9.85
2018-01-31T14:54:39.663Z,9.86
2018-01-31T14:55:39.816Z,9.85
2018-01-31T14:56:39.738Z,9.86
2018-01-31T14:57:39.646Z,9.85
2018-01-31T14:58:39.705Z,9.86
2018-01-31T14:59:39.553Z,9.86
2018-01-31T15:00:39.655Z,9.88
2018-01-31T15:01:39.649Z,9.86
2018-01-31T15:02:39.558Z,9.83
2018-01-31T15:03:39.530Z,9.86
2018-01-31T15:04:39.934Z,9.86
2018-01-31T15:05:39.803Z,9.83
2018-01-31T15:06:39.821Z,9.85
2018-01-31T15:07:39.608Z,9.86
2018-01-31T15:08:40.713Z,9.82
2018-01-31T15:09:39.529Z,9.82
2018-01-31T15:10:39.557Z,9.85
2018-01-31T15:11:40.120Z,9.81
2018-01-31T15:12:39.653Z,9.82
2018-01-31T15:13:39.520Z,9.82
2018-01-31T15:14:39.578Z,9.81
2018-01-31T15:15:39.703Z,9.79